Time;durP1;ratioP1;P1;durP2;ratioP2;P2;SDS_P1;SDS_P2;PMS_P1;PMS_P2;Temp;Humidity;BMP_temperature;BMP_pressure;BME280_temperature;BME280_humidity;BME280_pressure;Samples;Min_cycle;Max_cycle;Signal;HPM_P1;HPM_P2
2022/06/08 00:01:20;;;;;;;13.40;7.97;;;16.80;84.50;;;;;;6197863;23;20183;-88
2022/06/08 00:04:06;;;;;;;9.70;7.38;;;16.80;84.30;;;;;;6247700;22;20492;-88
2022/06/08 00:06:32;;;;;;;7.78;6.97;;;16.80;84.30;;;;;;6245883;23;20156;-88
2022/06/08 00:08:57;;;;;;;7.20;6.50;;;16.80;84.20;;;;;;6245253;22;20184;-88
2022/06/08 00:11:24;;;;;;;8.47;6.70;;;16.80;83.90;;;;;;6246889;23;20461;-88
2022/06/08 00:13:50;;;;;;;6.40;5.80;;;16.90;84.60;;;;;;6250818;22;20168;-89
2022/06/08 00:16:16;;;;;;;7.85;5.72;;;16.90;84.80;;;;;;6250146;22;20215;-87
2022/06/08 00:18:44;;;;;;;7.80;5.72;;;16.90;84.80;;;;;;6248330;22;20623;-88
2022/06/08 00:21:12;;;;;;;4.43;3.95;;;16.90;84.50;;;;;;6246263;23;20163;-88
2022/06/08 00:23:40;;;;;;;5.85;4.10;;;17.00;84.40;;;;;;6246896;23;20781;-88
2022/06/08 00:26:06;;;;;;;8.10;4.25;;;17.00;84.10;;;;;;6247879;22;20473;-88
2022/06/08 00:28:32;;;;;;;4.33;3.93;;;17.10;83.90;;;;;;6247653;23;20211;-87
2022/06/08 00:30:59;;;;;;;5.47;4.30;;;17.10;83.60;;;;;;6249744;22;20388;-87
2022/06/08 00:33:25;;;;;;;4.57;4.18;;;17.10;83.70;;;;;;6249798;23;20214;-87
2022/06/08 00:35:51;;;;;;;4.00;3.67;;;17.10;83.70;;;;;;6252614;22;20180;-87
2022/06/08 00:38:17;;;;;;;5.80;3.87;;;17.10;83.60;;;;;;6249714;23;20640;-87
2022/06/08 00:40:50;;;;;;;7.37;5.37;;;17.20;83.30;;;;;;6249186;22;20414;-87
2022/06/08 00:43:16;;;;;;;6.70;4.32;;;17.30;82.20;;;;;;6250553;22;20447;-88
2022/06/08 00:45:44;;;;;;;5.77;4.77;;;17.30;80.80;;;;;;6248519;23;20156;-88
2022/06/08 00:48:09;;;;;;;6.35;4.53;;;17.30;80.50;;;;;;6250090;23;20399;-88
2022/06/08 00:50:46;;;;;;;4.90;4.40;;;17.40;80.20;;;;;;6250477;22;20657;-88
2022/06/08 00:53:15;;;;;;;6.85;5.30;;;17.40;80.30;;;;;;6224314;23;20206;-88
2022/06/08 00:55:45;;;;;;;5.18;4.38;;;17.30;80.80;;;;;;6249410;22;20236;-88
2022/06/08 00:58:18;;;;;;;4.50;4.10;;;17.30;81.50;;;;;;6249325;23;20176;-88
2022/06/08 01:00:45;;;;;;;5.07;3.85;;;17.30;80.70;;;;;;6251511;22;20144;-88
2022/06/08 01:03:14;;;;;;;5.40;4.43;;;17.40;79.90;;;;;;6250310;23;20152;-88
2022/06/08 01:05:44;;;;;;;5.80;3.88;;;17.40;79.80;;;;;;6250373;23;20690;-88
2022/06/08 01:08:31;;;;;;;4.32;3.67;;;17.30;79.80;;;;;;6248507;23;20519;-88
2022/06/08 01:11:01;;;;;;;11.05;4.55;;;17.40;80.10;;;;;;6250267;23;20195;-87
2022/06/08 01:13:28;;;;;;;5.40;3.88;;;17.40;79.70;;;;;;6247524;22;20160;-87
2022/06/08 01:15:54;;;;;;;6.00;4.05;;;17.40;79.70;;;;;;6245727;23;20215;-87
2022/06/08 01:18:21;;;;;;;7.32;4.05;;;17.40;80.00;;;;;;6245319;23;20184;-87
2022/06/08 01:20:54;;;;;;;6.47;4.00;;;17.30;81.00;;;;;;6247921;22;20153;-88
2022/06/08 01:23:22;;;;;;;5.38;3.28;;;17.30;80.50;;;;;;6246554;23;20148;-88
2022/06/08 01:26:14;;;;;;;4.43;3.67;;;17.20;80.70;;;;;;6247925;22;20160;-88
2022/06/08 01:29:06;;;;;;;3.83;3.33;;;17.20;81.10;;;;;;6187664;22;20513;-88
2022/06/08 01:31:49;;;;;;;5.40;3.75;;;17.10;81.00;;;;;;6245746;23;20235;-87
2022/06/08 01:34:46;;;;;;;5.20;4.20;;;17.20;81.10;;;;;;6246419;23;20246;-87
2022/06/08 01:37:45;;;;;;;7.57;4.40;;;17.30;80.70;;;;;;6247050;23;20157;-88
2022/06/08 01:40:53;;;;;;;5.80;4.15;;;17.30;81.00;;;;;;6247123;23;20152;-87
2022/06/08 01:43:25;;;;;;;5.95;5.35;;;17.20;80.50;;;;;;6251455;22;20153;-86
2022/06/08 01:46:19;;;;;;;7.60;5.90;;;17.20;80.40;;;;;;6249527;23;20148;-86
2022/06/08 01:49:22;;;;;;;9.82;5.68;;;17.10;81.10;;;;;;6248498;22;20173;-87
2022/06/08 01:51:58;;;;;;;8.25;6.97;;;17.10;81.40;;;;;;6247643;22;20160;-86
2022/06/08 01:54:38;;;;;;;8.50;7.70;;;17.10;81.20;;;;;;6250835;22;20155;-87
2022/06/08 01:57:13;;;;;;;7.50;6.80;;;17.10;81.20;;;;;;6248521;23;20252;-87
2022/06/08 01:59:47;;;;;;;11.10;8.80;;;17.00;81.30;;;;;;6254086;23;20183;-87
2022/06/08 02:02:16;;;;;;;9.00;7.22;;;16.90;82.10;;;;;;6257098;23;20193;-88
2022/06/08 02:05:00;;;;;;;9.35;7.75;;;16.90;82.50;;;;;;6259018;22;20618;-88
2022/06/08 02:07:35;;;;;;;9.77;7.60;;;16.80;82.80;;;;;;6250450;23;20572;-87
2022/06/08 02:10:01;;;;;;;8.93;6.78;;;16.80;82.80;;;;;;6246833;23;20571;-87
2022/06/08 02:12:30;;;;;;;9.30;7.83;;;16.70;83.20;;;;;;6246856;22;20163;-86
2022/06/08 02:15:13;;;;;;;8.02;6.97;;;16.70;83.50;;;;;;6246775;22;20157;-85
2022/06/08 02:17:52;;;;;;;7.88;7.07;;;16.70;83.50;;;;;;6248103;22;20141;-86
2022/06/08 02:20:44;;;;;;;8.23;7.07;;;16.70;83.30;;;;;;6248700;22;20144;-87
2022/06/08 02:23:19;;;;;;;8.95;7.25;;;16.70;83.40;;;;;;6227708;22;20153;-88
2022/06/08 02:25:55;;;;;;;7.95;6.80;;;16.70;83.10;;;;;;6247423;23;20198;-87
2022/06/08 02:28:41;;;;;;;7.82;7.03;;;16.70;83.10;;;;;;6247051;23;20184;-87
2022/06/08 02:31:21;;;;;;;6.80;6.20;;;16.60;83.60;;;;;;6248372;23;20151;-88
2022/06/08 02:37:00;;;;;;;8.82;6.55;;;16.60;83.60;;;;;;6250220;23;20230;-88
2022/06/08 02:39:29;;;;;;;6.63;6.00;;;16.50;83.40;;;;;;6249008;23;20173;-88
2022/06/08 02:42:01;;;;;;;7.45;6.20;;;16.50;83.40;;;;;;6249105;22;20153;-88
2022/06/08 02:44:30;;;;;;;8.82;6.20;;;16.60;83.70;;;;;;6247089;23;20149;-87
2022/06/08 02:47:04;;;;;;;7.15;5.82;;;16.50;83.60;;;;;;6246108;23;20187;-88
2022/06/08 02:49:33;;;;;;;7.40;6.03;;;16.50;83.50;;;;;;6246888;23;20180;-86
2022/06/08 02:52:04;;;;;;;6.10;5.50;;;16.50;83.60;;;;;;6251556;22;20148;-88
2022/06/08 02:54:30;;;;;;;8.57;6.35;;;16.50;83.60;;;;;;6254300;23;20149;-87
2022/06/08 02:57:05;;;;;;;6.53;5.90;;;16.50;83.70;;;;;;6255204;22;20240;-87
2022/06/08 02:59:38;;;;;;;6.15;5.53;;;16.50;83.40;;;;;;6258816;23;20176;-88
2022/06/08 03:02:23;;;;;;;6.78;5.00;;;16.50;82.80;;;;;;6258649;23;20212;-87
2022/06/08 03:05:14;;;;;;;6.85;5.25;;;16.50;82.80;;;;;;6259542;22;20578;-87
2022/06/08 03:08:09;;;;;;;8.70;5.05;;;16.50;83.00;;;;;;6255898;23;20167;-87
2022/06/08 03:10:38;;;;;;;5.00;4.50;;;16.40;83.40;;;;;;6248148;23;20169;-88
2022/06/08 03:13:18;;;;;;;5.93;4.97;;;16.30;84.10;;;;;;6249950;22;20175;-87
2022/06/08 03:15:52;;;;;;;5.18;4.40;;;16.30;84.20;;;;;;6247210;23;20172;-88
2022/06/08 03:18:18;;;;;;;6.90;4.78;;;16.30;84.10;;;;;;6249705;22;20308;-88
2022/06/08 03:20:43;;;;;;;7.23;4.63;;;16.30;84.20;;;;;;6252289;23;20243;-87
2022/06/08 03:23:09;;;;;;;7.07;5.20;;;16.30;84.40;;;;;;6266276;23;20411;-89
2022/06/08 03:25:36;;;;;;;6.10;4.78;;;16.30;84.30;;;;;;6266807;23;20152;-87
2022/06/08 03:28:02;;;;;;;5.07;4.68;;;16.40;84.20;;;;;;6251349;22;20180;-89
2022/06/08 03:30:28;;;;;;;6.32;4.82;;;16.30;84.00;;;;;;6246106;23;20256;-88
2022/06/08 03:32:53;;;;;;;5.80;5.13;;;16.40;83.90;;;;;;6246375;23;20156;-87
2022/06/08 03:35:41;;;;;;;5.00;4.50;;;16.30;83.80;;;;;;6246507;23;20180;-88
2022/06/08 03:38:08;;;;;;;10.23;4.82;;;16.30;84.10;;;;;;6247172;22;20176;-88
2022/06/08 03:40:34;;;;;;;7.55;5.00;;;16.30;83.80;;;;;;6246004;22;20196;-88
2022/06/08 03:43:00;;;;;;;6.55;5.68;;;16.30;84.10;;;;;;6246183;23;20184;-88
2022/06/08 03:45:32;;;;;;;6.10;4.90;;;16.30;84.10;;;;;;6249770;22;20198;-89
2022/06/08 03:47:57;;;;;;;10.80;4.95;;;16.40;83.60;;;;;;6248189;22;20512;-89
2022/06/08 05:50:07;;;;;;;4.93;3.15;;;18.20;77.30;;;;;;6285311;22;20191;-91
2022/06/08 05:52:33;;;;;;;10.57;3.45;;;18.20;77.00;;;;;;6281527;22;20175;-92
2022/06/08 05:55:00;;;;;;;7.37;4.40;;;18.30;77.00;;;;;;6279688;22;20530;-92
2022/06/08 05:57:25;;;;;;;5.40;3.58;;;18.30;76.80;;;;;;6278653;22;20223;-91
2022/06/08 05:59:51;;;;;;;4.70;3.20;;;18.20;76.60;;;;;;6284384;22;20171;-91
2022/06/08 06:02:17;;;;;;;9.30;3.70;;;18.20;76.90;;;;;;6282668;22;20238;-91
2022/06/08 06:04:43;;;;;;;6.43;3.75;;;18.20;76.70;;;;;;6285664;22;20171;-90
2022/06/08 06:07:11;;;;;;;4.95;3.60;;;18.20;77.00;;;;;;6297631;22;20156;-91
2022/06/08 06:09:38;;;;;;;5.75;3.22;;;18.20;77.90;;;;;;6302005;22;20224;-91
2022/06/08 06:12:05;;;;;;;4.68;2.72;;;18.20;78.00;;;;;;6302775;22;20156;-90
2022/06/08 06:14:31;;;;;;;5.82;2.90;;;18.30;77.60;;;;;;6303322;22;20160;-89
2022/06/08 06:16:57;;;;;;;6.57;3.88;;;18.40;76.90;;;;;;6292600;22;20218;-90
2022/06/08 06:19:24;;;;;;;5.90;3.07;;;18.50;76.40;;;;;;6305178;22;20156;-90
2022/06/08 06:21:50;;;;;;;4.95;2.70;;;18.60;76.20;;;;;;6301370;22;20414;-91
2022/06/08 06:24:31;;;;;;;5.68;3.10;;;18.70;75.70;;;;;;6288515;22;20152;-91
2022/06/08 06:26:57;;;;;;;5.63;4.07;;;18.70;75.30;;;;;;6289513;22;20203;-93
2022/06/08 06:29:23;;;;;;;6.68;3.28;;;18.70;75.20;;;;;;6291261;22;20160;-91
2022/06/08 06:31:53;;;;;;;7.20;3.38;;;18.80;75.20;;;;;;6289792;22;20182;-93
2022/06/08 06:34:22;;;;;;;7.53;3.40;;;18.80;74.80;;;;;;6296321;22;20172;-93
2022/06/08 06:36:49;;;;;;;5.82;3.17;;;18.80;74.80;;;;;;6274315;22;20199;-94
2022/06/08 06:39:15;;;;;;;8.57;3.67;;;18.90;74.50;;;;;;6301410;22;20136;-93
2022/06/08 06:41:43;;;;;;;8.10;2.90;;;18.90;74.40;;;;;;6300310;22;20194;-94
2022/06/08 06:44:57;;;;;;;6.30;2.85;;;18.90;74.30;;;;;;6299071;22;20382;-94
2022/06/08 19:14:13;;;;;;;8.20;2.20;;;18.90;73.30;;;;;;6282311;22;20203;-90
2022/06/08 19:16:39;;;;;;;7.28;2.33;;;18.80;74.40;;;;;;6255311;22;20238;-93
2022/06/08 19:21:50;;;;;;;5.80;2.08;;;18.80;74.50;;;;;;6249455;23;20195;-93
2022/06/08 19:24:19;;;;;;;7.57;2.78;;;18.80;74.70;;;;;;6236392;23;20153;-93
2022/06/08 19:26:45;;;;;;;11.98;3.28;;;18.70;75.00;;;;;;6257974;23;20160;-93
2022/06/08 19:29:11;;;;;;;9.77;2.55;;;18.60;74.70;;;;;;6228908;23;20160;-93
2022/06/08 19:31:40;;;;;;;8.67;2.13;;;18.50;74.10;;;;;;6230074;23;20183;-92
2022/06/08 19:34:24;;;;;;;5.32;2.05;;;18.40;73.80;;;;;;6203606;23;20606;-93
2022/06/08 19:36:55;;;;;;;6.80;2.35;;;18.50;74.00;;;;;;6207681;23;20188;-94
2022/06/08 19:46:14;;;;;;;7.10;3.05;;;18.20;74.80;;;;;;6231607;23;20157;-95
2022/06/08 19:48:40;;;;;;;9.50;2.80;;;18.20;75.90;;;;;;6207287;23;20153;-95
2022/06/08 19:51:25;;;;;;;11.05;2.67;;;18.10;76.10;;;;;;6209759;22;20188;-96
2022/06/08 19:53:51;;;;;;;8.88;2.28;;;18.10;75.80;;;;;;6213263;23;20148;-93
2022/06/08 19:56:20;;;;;;;7.50;2.55;;;18.00;75.20;;;;;;6204468;23;20177;-93
2022/06/08 19:58:47;;;;;;;6.60;2.80;;;17.90;75.20;;;;;;6203680;23;20150;-93
2022/06/08 20:01:19;;;;;;;8.40;3.38;;;17.90;75.40;;;;;;6211358;22;20165;-95
2022/06/08 20:03:44;;;;;;;7.28;2.90;;;17.90;76.10;;;;;;6242593;22;20153;-94
2022/06/08 20:06:11;;;;;;;9.30;2.27;;;17.80;75.50;;;;;;6217186;23;20176;-91
2022/06/08 20:08:38;;;;;;;9.93;2.67;;;17.80;75.70;;;;;;6201348;23;20407;-92
2022/06/08 20:11:05;;;;;;;10.20;2.92;;;17.80;76.30;;;;;;6194779;23;20180;-94
2022/06/08 20:13:33;;;;;;;11.93;2.50;;;17.70;76.60;;;;;;6213059;23;20160;-93
2022/06/08 20:16:09;;;;;;;9.07;2.65;;;17.70;77.00;;;;;;6235068;23;20241;-94
2022/06/08 20:18:35;;;;;;;12.30;2.72;;;17.70;77.20;;;;;;6242419;23;20282;-94
2022/06/08 20:21:01;;;;;;;6.40;2.70;;;17.60;77.70;;;;;;6243304;23;20185;-93
2022/06/08 20:23:27;;;;;;;8.48;2.50;;;17.60;77.90;;;;;;6246512;22;20168;-93
2022/06/08 20:25:54;;;;;;;6.83;1.97;;;17.60;78.00;;;;;;6245846;23;20167;-92
2022/06/08 20:28:26;;;;;;;10.68;2.53;;;17.50;78.20;;;;;;6243080;23;20394;-94
2022/06/08 20:30:52;;;;;;;4.80;2.45;;;17.50;77.70;;;;;;6243629;22;20183;-94
2022/06/08 20:33:20;;;;;;;10.63;2.70;;;17.50;78.80;;;;;;6227446;23;20156;-94
2022/06/08 20:35:46;;;;;;;8.05;2.83;;;17.50;79.20;;;;;;6251709;23;20276;-94
2022/06/08 20:38:12;;;;;;;7.93;2.43;;;17.50;79.20;;;;;;6226544;23;20153;-93
2022/06/08 20:40:46;;;;;;;13.25;3.80;;;17.40;79.30;;;;;;6251682;22;20466;-93
2022/06/08 20:43:36;;;;;;;5.65;2.22;;;17.40;79.50;;;;;;6254413;23;20476;-92
2022/06/08 20:46:02;;;;;;;10.95;3.28;;;17.40;79.90;;;;;;6215858;23;20211;-94
2022/06/08 20:48:29;;;;;;;11.20;3.03;;;17.40;78.50;;;;;;6271595;22;20167;-92
2022/06/08 20:50:59;;;;;;;7.90;2.45;;;17.50;77.90;;;;;;6246598;22;20164;-93
2022/06/08 20:53:29;;;;;;;6.85;3.10;;;17.40;79.00;;;;;;6222804;23;20153;-92
2022/06/08 20:55:58;;;;;;;8.88;2.75;;;17.30;79.70;;;;;;6236509;23;20216;-93
2022/06/08 20:58:24;;;;;;;9.65;2.70;;;17.30;78.90;;;;;;6202020;23;20161;-92
2022/06/08 21:00:52;;;;;;;5.00;2.33;;;17.30;79.60;;;;;;6254811;22;20188;-92
2022/06/08 21:03:24;;;;;;;11.95;3.00;;;17.30;79.40;;;;;;6235097;23;20152;-92
2022/06/08 21:05:51;;;;;;;8.15;2.75;;;17.30;80.40;;;;;;6244004;23;20164;-92
2022/06/08 21:08:17;;;;;;;7.57;3.22;;;17.40;79.70;;;;;;6238550;23;20156;-91
2022/06/08 21:10:43;;;;;;;7.07;2.58;;;17.30;79.70;;;;;;6237447;22;20156;-92
2022/06/08 21:13:15;;;;;;;9.73;2.75;;;17.40;79.60;;;;;;6239289;23;20163;-91
2022/06/08 21:15:41;;;;;;;12.02;3.70;;;17.30;79.40;;;;;;6241841;23;20192;-91
2022/06/08 21:18:08;;;;;;;5.65;2.55;;;17.30;79.10;;;;;;6243714;23;20293;-93
2022/06/08 21:20:34;;;;;;;7.70;2.58;;;17.40;79.50;;;;;;6246110;22;20174;-90
2022/06/08 21:22:59;;;;;;;10.13;3.90;;;17.40;79.60;;;;;;6247596;22;20142;-92
2022/06/08 21:25:27;;;;;;;7.73;3.03;;;17.40;79.10;;;;;;6248066;22;20403;-90
2022/06/08 21:27:58;;;;;;;13.32;2.67;;;17.40;78.50;;;;;;6235159;22;20210;-91
2022/06/08 21:30:47;;;;;;;7.72;3.00;;;17.40;79.00;;;;;;6258385;23;20133;-92
2022/06/08 21:33:13;;;;;;;7.15;2.63;;;17.30;78.80;;;;;;6233397;23;20156;-91
2022/06/08 21:35:42;;;;;;;10.95;3.80;;;17.30;79.10;;;;;;6224075;23;20188;-92
2022/06/08 21:38:10;;;;;;;14.10;2.70;;;17.40;79.20;;;;;;6224097;23;20156;-92
2022/06/08 21:40:36;;;;;;;14.95;3.35;;;17.40;78.80;;;;;;6199169;22;20596;-92
2022/06/08 21:43:54;;;;;;;11.35;3.15;;;17.30;79.40;;;;;;6223444;23;20179;-91
2022/06/08 21:46:24;;;;;;;7.60;2.58;;;17.30;79.50;;;;;;6223217;23;20160;-92
2022/06/08 21:48:50;;;;;;;13.23;3.20;;;17.30;79.10;;;;;;6224527;23;20164;-92
2022/06/08 21:51:17;;;;;;;6.88;2.42;;;17.20;79.60;;;;;;6226304;23;20692;-92
2022/06/08 21:53:47;;;;;;;12.13;3.13;;;17.30;79.40;;;;;;6226974;23;20157;-92
2022/06/08 21:56:14;;;;;;;10.40;3.90;;;17.20;80.40;;;;;;6201033;23;20184;-92
2022/06/08 21:58:42;;;;;;;12.57;4.15;;;17.10;80.10;;;;;;6226180;23;20157;-92
2022/06/08 22:01:14;;;;;;;8.18;3.22;;;17.10;80.10;;;;;;6225762;23;20183;-91
2022/06/08 22:03:40;;;;;;;10.57;3.33;;;17.00;80.30;;;;;;6229875;23;20199;-90
2022/06/08 22:06:08;;;;;;;11.57;3.95;;;16.90;80.50;;;;;;6265505;23;20161;-90
2022/06/08 22:08:36;;;;;;;13.50;4.15;;;17.00;80.20;;;;;;6233096;23;20167;-91
2022/06/08 22:11:07;;;;;;;18.00;3.83;;;16.90;81.00;;;;;;6254090;22;20176;-91
2022/06/08 22:13:34;;;;;;;13.73;4.85;;;17.00;79.80;;;;;;6225619;23;20500;-90
2022/06/08 22:16:01;;;;;;;13.68;4.00;;;16.90;80.80;;;;;;6225925;23;20222;-90
2022/06/08 22:18:30;;;;;;;12.15;3.78;;;16.90;81.30;;;;;;6229823;23;20228;-90
2022/06/08 22:20:57;;;;;;;11.18;3.20;;;16.80;81.70;;;;;;6239364;23;20179;-90
2022/06/08 22:23:24;;;;;;;9.27;3.58;;;16.80;81.50;;;;;;6230981;23;20231;-90
2022/06/08 22:26:09;;;;;;;10.25;3.75;;;16.80;82.20;;;;;;6225830;23;20157;-90
2022/06/08 22:28:35;;;;;;;13.80;4.55;;;16.70;82.80;;;;;;6225427;23;20191;-91
2022/06/08 22:31:01;;;;;;;12.27;3.83;;;16.70;82.90;;;;;;6253156;22;20176;-90
2022/06/08 22:33:27;;;;;;;16.17;5.15;;;16.70;83.10;;;;;;6227134;23;20156;-90
2022/06/08 22:35:53;;;;;;;16.15;4.57;;;16.70;83.30;;;;;;6231197;23;20291;-90
2022/06/08 22:38:23;;;;;;;11.65;3.50;;;16.70;82.60;;;;;;6236548;23;20153;-90
2022/06/08 22:40:49;;;;;;;12.63;4.07;;;16.70;83.10;;;;;;6237831;22;20180;-90
2022/06/08 22:43:16;;;;;;;15.57;5.05;;;16.70;83.00;;;;;;6238201;23;20179;-91
2022/06/08 22:45:42;;;;;;;10.80;4.25;;;16.70;83.20;;;;;;6235391;23;20161;-91
2022/06/08 22:48:09;;;;;;;20.30;4.35;;;16.70;83.60;;;;;;6229837;23;20161;-91
2022/06/08 22:50:37;;;;;;;14.02;4.60;;;16.60;83.00;;;;;;6225330;22;20234;-92
2022/06/08 22:53:04;;;;;;;13.35;3.90;;;16.60;83.10;;;;;;6226997;23;20602;-91
2022/06/08 22:55:34;;;;;;;17.58;4.53;;;16.50;83.20;;;;;;6228272;23;20156;-92
2022/06/08 22:58:01;;;;;;;16.60;5.10;;;16.60;83.20;;;;;;6232777;23;20361;-91
2022/06/08 23:00:28;;;;;;;16.65;5.10;;;16.60;82.80;;;;;;6236599;23;20153;-92
2022/06/08 23:02:56;;;;;;;16.33;4.95;;;16.60;83.20;;;;;;6228414;23;20173;-91
2022/06/08 23:05:24;;;;;;;12.82;4.90;;;16.50;83.40;;;;;;6231394;23;20160;-92
2022/06/08 23:07:50;;;;;;;19.73;6.30;;;16.50;83.80;;;;;;6269885;23;20195;-92
2022/06/08 23:10:17;;;;;;;14.30;5.80;;;16.50;83.40;;;;;;6245519;23;20153;-91
2022/06/08 23:12:43;;;;;;;16.10;5.85;;;16.40;83.90;;;;;;6228736;23;20739;-91
2022/06/08 23:15:14;;;;;;;14.32;5.25;;;16.40;84.10;;;;;;6227216;23;20168;-92
2022/06/08 23:20:32;;;;;;;17.92;6.03;;;16.30;84.00;;;;;;6253974;23;20139;-95
2022/06/08 23:23:01;;;;;;;17.45;5.30;;;16.20;84.00;;;;;;6224866;23;20227;-92
2022/06/08 23:25:27;;;;;;;19.30;4.95;;;16.30;83.80;;;;;;6226504;23;20188;-91
2022/06/08 23:27:53;;;;;;;23.40;6.70;;;16.30;83.80;;;;;;6233508;23;20163;-92
2022/06/08 23:30:20;;;;;;;17.05;5.10;;;16.30;83.80;;;;;;6247240;22;20148;-94
2022/06/08 23:32:46;;;;;;;24.60;6.43;;;16.30;83.70;;;;;;6246238;22;20180;-92
2022/06/08 23:35:12;;;;;;;26.93;5.80;;;16.30;84.20;;;;;;6233446;23;20242;-93
2022/06/08 23:37:39;;;;;;;14.18;5.85;;;16.30;84.20;;;;;;6242399;22;20248;-93
2022/06/08 23:40:06;;;;;;;18.08;5.75;;;16.30;84.20;;;;;;6244565;22;20629;-91
2022/06/08 23:42:32;;;;;;;16.85;5.32;;;16.30;84.20;;;;;;6244805;22;20164;-91
2022/06/08 23:44:58;;;;;;;16.85;5.80;;;16.30;84.10;;;;;;6245592;22;20167;-92
2022/06/08 23:47:25;;;;;;;23.10;6.40;;;16.30;84.00;;;;;;6239920;23;20157;-91
2022/06/08 23:51:00;;;;;;;18.25;5.93;;;16.40;84.10;;;;;;6235123;23;20387;-94
2022/06/08 23:52:36;;;;;;;18.30;5.78;;;16.40;84.20;;;;;;6254817;22;20638;-93
2022/06/08 23:55:02;;;;;;;17.10;5.73;;;16.40;83.80;;;;;;6225458;23;20176;-92
2022/06/08 23:57:28;;;;;;;14.50;5.68;;;16.30;83.90;;;;;;6226070;23;20192;-92
2022/06/08 23:59:54;;;;;;;16.07;5.57;;;16.40;83.50;;;;;;6232836;23;20152;-92
